Buoy 52609

sailwx.info

Track history (hours):
 
Tides and Currents Weather Stations Pressure Air Temp Water Temp Dewpoint Dewpoint Depression Visibility Wind Speed Wind Dir Waves Ship Positions

Drifting buoy 52609

Last reported at 2014-Jul-23 18:00 UTC. Time now 2014-Jul-24 00:17 UTC.
Position N 09°24' E 160°05'.

Water temperature 29.4 ° C

Date/timePositionNaut miles runAvg speedWind from/ knotsBaromVisibWave heightAir tempDewpointWater temp
2014-Jul-23 18:00N 09°24' E 160°05'2 0.7 29.4
2014-Jul-23 15:00N 09°22' E 160°03'2 0.4 29.4
2014-Jul-23 10:00N 09°22' E 160°05'1 0.3 29.5
2014-Jul-23 07:00N 09°23' E 160°05'1 0.4 29.6
2014-Jul-23 05:00N 09°24' E 160°05'0 0.2 29.7
2014-Jul-23 04:00N 09°24' E 160°05'0 0.0 29.8
2014-Jul-23 03:00N 09°24' E 160°05'1 0.2 29.7
2014-Jul-22 20:00N 09°25' E 160°05'1 1.0 29.3
2014-Jul-22 19:00N 09°26' E 160°06'1 1.0 29.3
2014-Jul-22 18:00N 09°27' E 160°05'0 0.0 29.3
2014-Jul-22 16:00N 09°27' E 160°05'0 0.0 29.3
2014-Jul-22 15:00N 09°27' E 160°05'1 1.0 29.3
2014-Jul-22 14:00N 09°27' E 160°06'0 0.0 29.3
2014-Jul-22 11:00N 09°27' E 160°06'1 0.5 29.4
2014-Jul-22 09:00N 09°28' E 160°06'0 0.0 29.4
2014-Jul-22 05:00N 09°28' E 160°06'1 1.3 29.6
2014-Jul-22 04:00N 09°29' E 160°05'0 0.0 29.7
2014-Jul-22 03:00N 09°29' E 160°05'0 0.1 29.7
2014-Jul-21 23:00N 09°29' E 160°04'1 0.2 29.4
2014-Jul-21 19:00N 09°28' E 160°04'0 0.0 29.3
2014-Jul-21 18:00N 09°28' E 160°04'0 0.0 29.4
2014-Jul-21 16:00N 09°28' E 160°04'0 0.3 29.4
2014-Jul-21 15:00N 09°28' E 160°03'3 0.5 29.4
2014-Jul-21 10:00N 09°26' E 160°05'1 0.2 29.4
2014-Jul-21 06:00N 09°27' E 160°05'1 0.3 29.5
2014-Jul-21 04:00N 09°26' E 160°05'0 0.5 29.5
2014-Jul-21 03:00N 09°26' E 160°04'2 0.2 29.5
2014-Jul-20 16:00N 09°25' E 160°06'0 0.3 29.4
2014-Jul-20 15:00N 09°25' E 160°05'3 0.7 29.5
2014-Jul-20 11:00N 09°22' E 160°07'3 0.5 29.5
2014-Jul-20 04:00N 09°23' E 160°10'0 0.0 29.7
2014-Jul-20 03:00N 09°23' E 160°10'2 0.3 29.6
2014-Jul-19 22:00N 09°24' E 160°12'0 0.0 29.4
2014-Jul-19 20:00N 09°24' E 160°12'1 1.2 29.4
2014-Jul-19 19:00N 09°25' E 160°13'3 0.3 29.4
2014-Jul-19 11:00N 09°27' E 160°13'1 0.5 29.5
2014-Jul-19 09:00N 09°28' E 160°14'2 0.2 29.6
2014-Jul-19 02:00N 09°29' E 160°13'0 0.0 30.0
2014-Jul-19 01:00N 09°29' E 160°13'1 0.1 29.6
2014-Jul-18 19:00N 09°29' E 160°13'1 0.3 29.4
2014-Jul-18 17:00N 09°29' E 160°13'1 0.5 29.4
2014-Jul-18 16:00N 09°30' E 160°12'1 0.1 29.4
2014-Jul-18 11:00N 09°29' E 160°12'0 0.4 29.4
2014-Jul-18 10:00N 09°29' E 160°11'0 0.2 29.5
2014-Jul-18 09:00N 09°29' E 160°11'0 0.3 29.5
2014-Jul-18 08:00N 09°29' E 160°12'0 0.2 29.5
2014-Jul-18 06:00N 09°29' E 160°11'1 0.3 29.5
2014-Jul-18 02:00N 09°30' E 160°11'3 0.2 29.7
2014-Jul-17 15:00N 09°28' E 160°09'3 0.3 29.5
2014-Jul-17 06:00N 09°25' E 160°08'1 0.3 29.5
2014-Jul-17 04:00N 09°26' E 160°08'0 0.0 29.5
2014-Jul-17 03:00N 09°26' E 160°08'1 0.4 29.5
2014-Jul-17 00:00N 09°26' E 160°07'1 1.5 29.5
2014-Jul-16 23:00N 09°25' E 160°07'0 0.0 29.6
2014-Jul-16 20:00N 09°25' E 160°07'0 0.0 29.6
2014-Jul-16 17:00N 09°25' E 160°07'2 1.6 29.7
2014-Jul-16 16:00N 09°26' E 160°06'0 0.0 29.7
2014-Jul-16 15:00N 09°26' E 160°06'2 0.5 29.7
2014-Jul-16 10:00N 09°25' E 160°04'3 0.9 29.7
2014-Jul-16 07:00N 09°22' E 160°05'2 0.6 29.8
2014-Jul-16 04:00N 09°21' E 160°06'0 0.0 29.8
2014-Jul-16 02:00N 09°21' E 160°06'3 0.4 29.8
2014-Jul-15 18:00N 09°18' E 160°07'2 0.7 29.6
2014-Jul-15 15:00N 09°18' E 160°09'1 0.2 29.6
2014-Jul-15 11:00N 09°18' E 160°10'1 0.6 29.6
2014-Jul-15 10:00N 09°18' E 160°11'2 0.4 29.6
2014-Jul-15 06:00N 09°16' E 160°10'0 0.0 29.8
2014-Jul-15 05:00N 09°16' E 160°10'2 0.6 29.9
2014-Jul-15 02:00N 09°16' E 160°12'3 0.7 29.8
2014-Jul-14 22:00N 09°15' E 160°15'1 0.2 29.7
2014-Jul-14 18:00N 09°15' E 160°15'1 0.3 29.6
2014-Jul-14 15:00N 09°16' E 160°16'2 0.2 29.6
2014-Jul-14 03:00N 09°18' E 160°17'1 0.1 30.0
2014-Jul-13 19:00N 09°18' E 160°16'1 1.1 29.5
2014-Jul-13 18:00N 09°17' E 160°16'   29.5
Track history (hours):
 
Tides and Currents Weather Stations Pressure Air Temp Water Temp Dewpoint Dewpoint Depression Visibility Wind Speed Wind Dir Waves Ship Positions

Drifting buoy 52609

Last reported at 2014-Jul-23 18:00 UTC. Time now 2014-Jul-24 00:17 UTC.
Position N 09°24' E 160°05'.

Water temperature 29.4 ° C

Date/timePositionNaut miles runAvg speedWind from/ knotsBaromVisibWave heightAir tempDewpointWater temp
2014-Jul-23 18:00N 09°24' E 160°05'2 0.7 29.4
2014-Jul-23 15:00N 09°22' E 160°03'2 0.4 29.4
2014-Jul-23 10:00N 09°22' E 160°05'1 0.3 29.5
2014-Jul-23 07:00N 09°23' E 160°05'1 0.4 29.6
2014-Jul-23 05:00N 09°24' E 160°05'0 0.2 29.7
2014-Jul-23 04:00N 09°24' E 160°05'0 0.0 29.8
2014-Jul-23 03:00N 09°24' E 160°05'1 0.2 29.7
2014-Jul-22 20:00N 09°25' E 160°05'1 1.0 29.3
2014-Jul-22 19:00N 09°26' E 160°06'1 1.0 29.3
2014-Jul-22 18:00N 09°27' E 160°05'0 0.0 29.3
2014-Jul-22 16:00N 09°27' E 160°05'0 0.0 29.3
2014-Jul-22 15:00N 09°27' E 160°05'1 1.0 29.3
2014-Jul-22 14:00N 09°27' E 160°06'0 0.0 29.3
2014-Jul-22 11:00N 09°27' E 160°06'1 0.5 29.4
2014-Jul-22 09:00N 09°28' E 160°06'0 0.0 29.4
2014-Jul-22 05:00N 09°28' E 160°06'1 1.3 29.6
2014-Jul-22 04:00N 09°29' E 160°05'0 0.0 29.7
2014-Jul-22 03:00N 09°29' E 160°05'0 0.1 29.7
2014-Jul-21 23:00N 09°29' E 160°04'1 0.2 29.4
2014-Jul-21 19:00N 09°28' E 160°04'0 0.0 29.3
2014-Jul-21 18:00N 09°28' E 160°04'0 0.0 29.4
2014-Jul-21 16:00N 09°28' E 160°04'0 0.3 29.4
2014-Jul-21 15:00N 09°28' E 160°03'3 0.5 29.4
2014-Jul-21 10:00N 09°26' E 160°05'1 0.2 29.4
2014-Jul-21 06:00N 09°27' E 160°05'1 0.3 29.5
2014-Jul-21 04:00N 09°26' E 160°05'0 0.5 29.5
2014-Jul-21 03:00N 09°26' E 160°04'2 0.2 29.5
2014-Jul-20 16:00N 09°25' E 160°06'0 0.3 29.4
2014-Jul-20 15:00N 09°25' E 160°05'3 0.7 29.5
2014-Jul-20 11:00N 09°22' E 160°07'3 0.5 29.5
2014-Jul-20 04:00N 09°23' E 160°10'0 0.0 29.7
2014-Jul-20 03:00N 09°23' E 160°10'2 0.3 29.6
2014-Jul-19 22:00N 09°24' E 160°12'0 0.0 29.4
2014-Jul-19 20:00N 09°24' E 160°12'1 1.2 29.4
2014-Jul-19 19:00N 09°25' E 160°13'3 0.3 29.4
2014-Jul-19 11:00N 09°27' E 160°13'1 0.5 29.5
2014-Jul-19 09:00N 09°28' E 160°14'2 0.2 29.6
2014-Jul-19 02:00N 09°29' E 160°13'0 0.0 30.0
2014-Jul-19 01:00N 09°29' E 160°13'1 0.1 29.6
2014-Jul-18 19:00N 09°29' E 160°13'1 0.3 29.4
2014-Jul-18 17:00N 09°29' E 160°13'1 0.5 29.4
2014-Jul-18 16:00N 09°30' E 160°12'1 0.1 29.4
2014-Jul-18 11:00N 09°29' E 160°12'0 0.4 29.4
2014-Jul-18 10:00N 09°29' E 160°11'0 0.2 29.5
2014-Jul-18 09:00N 09°29' E 160°11'0 0.3 29.5
2014-Jul-18 08:00N 09°29' E 160°12'0 0.2 29.5
2014-Jul-18 06:00N 09°29' E 160°11'1 0.3 29.5
2014-Jul-18 02:00N 09°30' E 160°11'3 0.2 29.7
2014-Jul-17 15:00N 09°28' E 160°09'3 0.3 29.5
2014-Jul-17 06:00N 09°25' E 160°08'1 0.3 29.5
2014-Jul-17 04:00N 09°26' E 160°08'0 0.0 29.5
2014-Jul-17 03:00N 09°26' E 160°08'1 0.4 29.5
2014-Jul-17 00:00N 09°26' E 160°07'1 1.5 29.5
2014-Jul-16 23:00N 09°25' E 160°07'0 0.0 29.6
2014-Jul-16 20:00N 09°25' E 160°07'0 0.0 29.6
2014-Jul-16 17:00N 09°25' E 160°07'2 1.6 29.7
2014-Jul-16 16:00N 09°26' E 160°06'0 0.0 29.7
2014-Jul-16 15:00N 09°26' E 160°06'2 0.5 29.7
2014-Jul-16 10:00N 09°25' E 160°04'3 0.9 29.7
2014-Jul-16 07:00N 09°22' E 160°05'2 0.6 29.8
2014-Jul-16 04:00N 09°21' E 160°06'0 0.0 29.8
2014-Jul-16 02:00N 09°21' E 160°06'3 0.4 29.8
2014-Jul-15 18:00N 09°18' E 160°07'2 0.7 29.6
2014-Jul-15 15:00N 09°18' E 160°09'1 0.2 29.6
2014-Jul-15 11:00N 09°18' E 160°10'1 0.6 29.6
2014-Jul-15 10:00N 09°18' E 160°11'2 0.4 29.6
2014-Jul-15 06:00N 09°16' E 160°10'0 0.0 29.8
2014-Jul-15 05:00N 09°16' E 160°10'2 0.6 29.9
2014-Jul-15 02:00N 09°16' E 160°12'3 0.7 29.8
2014-Jul-14 22:00N 09°15' E 160°15'1 0.2 29.7
2014-Jul-14 18:00N 09°15' E 160°15'1 0.3 29.6
2014-Jul-14 15:00N 09°16' E 160°16'2 0.2 29.6
2014-Jul-14 03:00N 09°18' E 160°17'1 0.1 30.0
2014-Jul-13 19:00N 09°18' E 160°16'1 1.1 29.5
2014-Jul-13 18:00N 09°17' E 160°16'   29.5

Dump ship's entire track history